• Join FlightAware (Why Join?)
  • Login
  • US Flag 
10:45AM EDT


 

Airport Tracker/Info


-or-


 

Live Flight TrackerFlight Track Log ✈ EJA727 ✈ 09-May-2013 ✈ KICT - KBJC

Flight Track Log - Related Links

Times and Time Zones

All times are in EDT time to prevent confusion due to time zone crossing. See the EJA727 flight status page for this flight to view local times or setup timezone preferences in your user account.

Time Position Orientation Groundspeed Altitude Reporting Facility
EDT Latitude Longitude Course Direction KTS MPH feet Rate Location/Type
06:22PM 37.6606 -97.4194 341° North 168 193 1,800  Level Kansas City Center
06:23PM 37.7047 -97.4392 341° North 244 281 5,100 4,140 Climbing Kansas City Center
06:24PM 37.7331 -97.5364 290° West 250 288 10,600 4,500 Climbing Kansas City Center
06:25PM 37.7486 -97.6361 281° West 290 334 14,400 2,940 Climbing Kansas City Center
06:27PM 37.7564 -97.7506 275° West 334 384 16,700 2,760 Climbing Kansas City Center
06:28PM 37.7650 -97.8825 275° West 367 422 20,200 3,480 Climbing Kansas City Center
06:29PM 37.7764 -98.0433 275° West 381 438 24,000 2,940 Climbing Kansas City Center
06:30PM 37.7847 -98.1711 275° West 396 456 26,300 2,100 Climbing Kansas City Center
06:31PM 37.8153 -98.3106 286° West 412 474 28,400 1,680 Climbing Kansas City Center
06:32PM 37.8353 -98.4558 280° West 426 490 29,800 1,620 Climbing Kansas City Center
06:33PM 37.8439 -98.6344 274° West 426 490 31,800 1,740 Climbing Kansas City Center
06:34PM 37.8503 -98.7839 273° West 424 488 33,500 1,020 Climbing Kansas City Center
06:35PM 37.8569 -98.9339 273° West 427 491 34,000 240 Climbing Kansas City Center
06:36PM 37.8633 -99.0883 273° West 437 503 34,100 660 Climbing Kansas City Center
06:38PM 37.8756 -99.3953 273° West 440 506 36,000 600 Climbing Denver Center
06:39PM 37.8819 -99.5642 273° West 432 497 36,000  Level Denver Center
06:40PM 37.8864 -99.7050 272° West 420 483 36,000  Level Denver Center
06:41PM 37.8936 -99.8692 273° West 417 480 36,000  Level Kansas City Center
06:42PM 37.8986 -100.0317 272° West 414 476 36,000  Level Kansas City Center
06:43PM 37.9031 -100.1775 272° West 428 493 36,000  Level Kansas City Center
06:44PM 37.9086 -100.3528 272° West 444 511 36,000  Level Kansas City Center
06:45PM 37.9139 -100.5064 273° West 453 521 36,000  Level Kansas City Center
06:46PM 37.9186 -100.6842 272° West 455 524 36,000  Level Kansas City Center
06:47PM 37.9350 -100.8317 278° West 450 518 36,000  Level Kansas City Center
06:48PM 37.9575 -100.9792 281° West 452 520 36,000  Level Denver Center
06:49PM 37.9831 -101.1536 281° West 454 522 36,000  Level Denver Center
06:50PM 38.0047 -101.3042 280° West 456 525 36,000  Level Denver Center
06:51PM 38.0303 -101.4800 281° West 456 525 36,000  Level Denver Center
06:52PM 38.0519 -101.6325 280° West 460 529 36,000  Level Denver Center
06:53PM 38.0775 -101.8108 280° West 461 531 36,000  Level Denver Center
06:54PM 38.0986 -101.9642 280° West 460 529 36,000  Level Denver Center
06:55PM 38.1236 -102.1419 280° West 459 528 36,000 -300 Level Denver Center
06:56PM 38.1444 -102.2939 280° West 458 527 35,400 -840 Descending Denver Center
06:57PM 38.1636 -102.4433 279° West 449 517 34,300 -1,140 Descending Denver Center
06:58PM 38.1878 -102.6194 280° West 455 524 33,100 -1,140 Descending Denver Center
06:59PM 38.2258 -102.7672 288° West 464 534 32,000 -540 Descending Denver Center
07:01PM 38.2858 -102.9311 295° West 457 526 32,000 -540 Level Denver Center
07:02PM 38.3364 -103.0711 295° West 456 525 30,900 -1,200 Descending Denver Center
07:03PM 38.3975 -103.2403 295° West 469 540 29,600 -1,140 Descending Denver Center
07:04PM 38.4528 -103.3808 297° West 465 535 28,600 -1,680 Descending Denver Center
07:05PM 38.5161 -103.5378 297° West 465 535 26,200 -2,760 Descending Denver Center
07:06PM 38.5725 -103.6825 297° West 416 479 22,900 -3,000 Descending Denver Center
07:07PM 38.6206 -103.8031 297° West 401 461 20,100 -2,760 Descending Denver Center
07:08PM 38.6750 -103.9411 297° West 394 453 17,200 -1,980 Descending Denver Center
07:09PM 38.7197 -104.0539 297° West 385 443 16,100 -540 Descending Denver Center
07:10PM 38.7619 -104.1622 297° West 373 429 16,100  Level Denver Center
07:11PM 38.7958 -104.2925 288° West 360 414 16,100 -420 Level Denver Center
07:12PM 38.8194 -104.4075 285° West 362 417 15,300 -1,260 Descending Denver Center
07:13PM 38.9139 -104.4708 332° Northwest 350 403 13,500 -1,620 Descending Denver Center
07:14PM 38.9950 -104.5194 335° Northwest 337 388 12,000 -780 Descending Denver Center
07:15PM 39.0833 -104.5667 337° Northwest 304 350 12,000 -300 Level Denver Center
07:16PM 39.1467 -104.6383 319° Northwest 305 351 11,400 -540 Descending Denver Center
07:17PM 39.2019 -104.7344 307° West 307 353 11,000 -240 Descending Denver Center
07:18PM 39.2508 -104.8139 308° West 290 334 11,000  Level Denver Center
07:19PM 39.3294 -104.8603 335° Northwest 296 341 11,000  Level Denver Center
07:21PM 39.4622 -104.9181 341° North 249 287 11,000  Level Denver Center
07:22PM 39.5311 -104.9492 341° North 245 282 11,000 -120 Level Denver Center
07:23PM 39.5836 -104.9667 346° North 203 234 10,800 -840 Descending Denver Center
07:24PM 39.6408 -104.9689 358° North 191 220 9,300 -900 Descending Denver Center
07:25PM 39.6911 -104.9700 359° North 184 212 9,000 -720 Descending Denver Center
07:26PM 39.7500 -104.9692 North 194 223 7,900 -780 Descending Denver Center
07:27PM 39.8006 -104.9669 North 185 213 7,500 -540 Descending Denver Center
07:28PM 39.8428 -104.9867 340° North 179 206 6,900 -420 Descending Denver Center
07:29PM 39.8656 -105.0356 301° West 150 173 6,700 -480 Descending Denver Center
07:31PM 39.8892 -105.0794 305° West 148 170 6,000 -720 Descending Denver Center